Terminal Aerodrome Forecast
Issued by NWS

Home | Current Version | Previous Version | Text Only | Print | Product List | Glossary On
Versions: 1 2 3 4 5 6 7 8 9 10 11 12 13 14 15 16 17
000
FTUS43 KDDC 211135 CCA
TAFHYS
TAF COR
KHYS 211135Z 2112/2212 19018KT P6SM SKC
     FM211300 34021G29KT P6SM BKN150
     FM220000 34012KT P6SM SCT200
     FM220300 32007KT P6SM FEW250=

USA.gov is the U.S. government's official web portal to all federal, state and local government web resources and services.